sensor_id;sensor_type;location;lat;lon;timestamp;pressure;altitude;pressure_sealevel;temperature;humidity
13434;BME280;6789;47.678;9.158;2024-03-06T00:04:30;53353.25;;;-138.23;84.26
13434;BME280;6789;47.678;9.158;2024-03-06T00:09:22;53329.16;;;-138.23;83.47
13434;BME280;6789;47.678;9.158;2024-03-06T00:14:14;53327.16;;;-138.23;83.57
13434;BME280;6789;47.678;9.158;2024-03-06T00:19:05;53341.22;;;-138.23;83.63
13434;BME280;6789;47.678;9.158;2024-03-06T00:23:57;53353.25;;;-138.23;85.30
13434;BME280;6789;47.678;9.158;2024-03-06T00:28:49;53335.19;;;-138.23;86.53
13434;BME280;6789;47.678;9.158;2024-03-06T00:33:41;53337.19;;;-138.23;86.22
13434;BME280;6789;47.678;9.158;2024-03-06T00:38:33;53355.28;;;-138.23;86.65
13434;BME280;6789;47.678;9.158;2024-03-06T00:43:25;53333.19;;;-138.23;85.30
13434;BME280;6789;47.678;9.158;2024-03-06T00:48:17;53347.25;;;-138.23;84.83
13434;BME280;6789;47.678;9.158;2024-03-06T00:53:11;53377.38;;;-138.23;85.25
13434;BME280;6789;47.678;9.158;2024-03-06T00:58:03;53365.31;;;-138.23;85.73
13434;BME280;6789;47.678;9.158;2024-03-06T01:02:55;53369.34;;;-138.23;85.49
13434;BME280;6789;47.678;9.158;2024-03-06T01:07:47;53357.28;;;-138.23;84.36
13434;BME280;6789;47.678;9.158;2024-03-06T01:12:39;53325.16;;;-138.23;84.84
13434;BME280;6789;47.678;9.158;2024-03-06T01:17:30;53365.31;;;-138.23;84.53
13434;BME280;6789;47.678;9.158;2024-03-06T01:22:22;53345.22;;;-138.23;84.73
13434;BME280;6789;47.678;9.158;2024-03-06T01:27:16;53309.09;;;-138.23;83.93
13434;BME280;6789;47.678;9.158;2024-03-06T01:32:08;53355.28;;;-138.23;84.41
13434;BME280;6789;47.678;9.158;2024-03-06T01:37:01;53363.31;;;-138.23;83.58
13434;BME280;6789;47.678;9.158;2024-03-06T01:41:53;53359.28;;;-138.23;83.90
13434;BME280;6789;47.678;9.158;2024-03-06T01:46:45;53341.22;;;-138.23;84.36
13434;BME280;6789;47.678;9.158;2024-03-06T01:51:38;53379.38;;;-138.23;84.07
13434;BME280;6789;47.678;9.158;2024-03-06T01:56:32;53355.28;;;-138.23;84.96
13434;BME280;6789;47.678;9.158;2024-03-06T02:01:25;53359.28;;;-138.23;84.68
13434;BME280;6789;47.678;9.158;2024-03-06T02:06:17;53361.31;;;-138.23;83.05
13434;BME280;6789;47.678;9.158;2024-03-06T02:11:12;53373.34;;;-138.23;82.96
13434;BME280;6789;47.678;9.158;2024-03-06T02:16:05;53369.34;;;-138.23;83.22
13434;BME280;6789;47.678;9.158;2024-03-06T02:20:57;53337.19;;;-138.23;83.57
13434;BME280;6789;47.678;9.158;2024-03-06T02:25:49;53319.13;;;-138.23;84.25
13434;BME280;6789;47.678;9.158;2024-03-06T02:30:41;53369.34;;;-138.23;84.03
13434;BME280;6789;47.678;9.158;2024-03-06T02:35:33;53365.31;;;-138.23;83.41
13434;BME280;6789;47.678;9.158;2024-03-06T02:40:25;53369.34;;;-138.23;83.08
13434;BME280;6789;47.678;9.158;2024-03-06T02:45:17;53385.41;;;-138.23;84.30
13434;BME280;6789;47.678;9.158;2024-03-06T02:50:09;53379.38;;;-138.23;84.61
13434;BME280;6789;47.678;9.158;2024-03-06T02:55:02;53351.25;;;-138.23;85.59
13434;BME280;6789;47.678;9.158;2024-03-06T02:59:55;53371.34;;;-138.23;85.79
13434;BME280;6789;47.678;9.158;2024-03-06T03:04:47;53341.22;;;-138.23;87.04
13434;BME280;6789;47.678;9.158;2024-03-06T03:09:38;53353.25;;;-138.23;85.09
13434;BME280;6789;47.678;9.158;2024-03-06T03:14:30;53399.44;;;-138.23;84.92
13434;BME280;6789;47.678;9.158;2024-03-06T03:19:22;53389.41;;;-138.23;85.20
13434;BME280;6789;47.678;9.158;2024-03-06T03:24:14;53355.28;;;-138.23;85.98
13434;BME280;6789;47.678;9.158;2024-03-06T03:29:05;53393.44;;;-138.23;86.75
13434;BME280;6789;47.678;9.158;2024-03-06T03:33:57;53365.31;;;-138.23;86.19
13434;BME280;6789;47.678;9.158;2024-03-06T03:38:49;53351.25;;;-138.23;87.31
13434;BME280;6789;47.678;9.158;2024-03-06T03:43:42;53357.28;;;-138.23;87.06
13434;BME280;6789;47.678;9.158;2024-03-06T03:48:34;53387.41;;;-138.23;86.48
13434;BME280;6789;47.678;9.158;2024-03-06T03:53:28;53363.31;;;-138.23;87.52
13434;BME280;6789;47.678;9.158;2024-03-06T03:58:19;53341.22;;;-138.23;88.03
13434;BME280;6789;47.678;9.158;2024-03-06T04:03:11;53377.38;;;-138.23;88.89
13434;BME280;6789;47.678;9.158;2024-03-06T04:08:03;53365.31;;;-138.23;90.22
13434;BME280;6789;47.678;9.158;2024-03-06T04:12:58;53373.34;;;-138.23;91.01
13434;BME280;6789;47.678;9.158;2024-03-06T04:17:51;53357.28;;;-138.23;90.94
13434;BME280;6789;47.678;9.158;2024-03-06T04:22:45;53361.31;;;-138.23;91.38
13434;BME280;6789;47.678;9.158;2024-03-06T04:27:38;53373.34;;;-138.23;91.54
13434;BME280;6789;47.678;9.158;2024-03-06T04:32:29;53371.34;;;-138.23;91.30
13434;BME280;6789;47.678;9.158;2024-03-06T04:37:21;53401.47;;;-138.23;90.10
13434;BME280;6789;47.678;9.158;2024-03-06T04:42:13;53365.31;;;-138.23;89.58
13434;BME280;6789;47.678;9.158;2024-03-06T04:47:05;53385.41;;;-138.23;89.59
13434;BME280;6789;47.678;9.158;2024-03-06T04:51:57;53349.25;;;-138.23;88.32
13434;BME280;6789;47.678;9.158;2024-03-06T04:56:48;53361.31;;;-138.23;88.32
13434;BME280;6789;47.678;9.158;2024-03-06T05:01:40;53385.41;;;-138.23;90.20
13434;BME280;6789;47.678;9.158;2024-03-06T05:06:32;53379.38;;;-138.23;90.14
13434;BME280;6789;47.678;9.158;2024-03-06T05:11:41;53415.53;;;-138.23;91.24
13434;BME280;6789;47.678;9.158;2024-03-06T05:16:51;53407.50;;;-138.23;92.15
13434;BME280;6789;47.678;9.158;2024-03-06T05:22:00;53409.50;;;-138.23;93.24
13434;BME280;6789;47.678;9.158;2024-03-06T05:27:10;53351.25;;;-138.23;94.49
13434;BME280;6789;47.678;9.158;2024-03-06T05:32:26;53353.25;;;-138.23;94.44
13434;BME280;6789;47.678;9.158;2024-03-06T05:37:36;53383.38;;;-138.23;94.29
13434;BME280;6789;47.678;9.158;2024-03-06T05:42:45;53375.34;;;-138.23;93.72
13434;BME280;6789;47.678;9.158;2024-03-06T05:47:55;53377.38;;;-138.23;92.84
13434;BME280;6789;47.678;9.158;2024-03-06T05:53:04;53407.50;;;-138.23;91.93
13434;BME280;6789;47.678;9.158;2024-03-06T05:58:14;53397.44;;;-138.23;89.57
13434;BME280;6789;47.678;9.158;2024-03-06T06:03:09;53377.38;;;-138.23;88.36
13434;BME280;6789;47.678;9.158;2024-03-06T06:08:03;53425.56;;;-138.23;88.39
13434;BME280;6789;47.678;9.158;2024-03-06T06:12:56;53365.31;;;-138.23;88.17
13434;BME280;6789;47.678;9.158;2024-03-06T06:17:48;53417.53;;;-138.23;88.75
13434;BME280;6789;47.678;9.158;2024-03-06T06:22:41;53383.38;;;-138.23;88.82
13434;BME280;6789;47.678;9.158;2024-03-06T06:27:33;53395.44;;;-138.23;86.79
13434;BME280;6789;47.678;9.158;2024-03-06T06:32:25;53391.41;;;-138.23;86.58
13434;BME280;6789;47.678;9.158;2024-03-06T06:37:17;53379.38;;;-138.23;87.30
13434;BME280;6789;47.678;9.158;2024-03-06T06:42:11;53363.31;;;-138.23;87.50
13434;BME280;6789;47.678;9.158;2024-03-06T06:47:02;53375.34;;;-138.23;87.15
13434;BME280;6789;47.678;9.158;2024-03-06T06:51:54;53409.50;;;-138.23;87.74
13434;BME280;6789;47.678;9.158;2024-03-06T06:56:46;53393.44;;;-138.23;87.64
13434;BME280;6789;47.678;9.158;2024-03-06T07:01:38;53399.44;;;-138.23;86.94
13434;BME280;6789;47.678;9.158;2024-03-06T07:06:30;53361.31;;;-138.23;86.60
13434;BME280;6789;47.678;9.158;2024-03-06T07:11:22;53395.44;;;-138.23;85.77
13434;BME280;6789;47.678;9.158;2024-03-06T07:16:15;53379.38;;;-138.23;85.28
13434;BME280;6789;47.678;9.158;2024-03-06T07:21:06;53407.50;;;-138.23;84.48
13434;BME280;6789;47.678;9.158;2024-03-06T07:25:59;53423.56;;;-138.23;84.79
13434;BME280;6789;47.678;9.158;2024-03-06T07:30:52;53361.31;;;-138.23;84.26
13434;BME280;6789;47.678;9.158;2024-03-06T07:35:44;53357.28;;;-138.23;84.58
13434;BME280;6789;47.678;9.158;2024-03-06T07:40:36;53345.22;;;-138.23;84.73
13434;BME280;6789;47.678;9.158;2024-03-06T07:45:27;53329.16;;;-138.23;84.08
13434;BME280;6789;47.678;9.158;2024-03-06T07:50:19;53373.34;;;-138.23;82.69
13434;BME280;6789;47.678;9.158;2024-03-06T07:55:12;53337.19;;;-138.23;81.69
13434;BME280;6789;47.678;9.158;2024-03-06T08:00:06;53373.34;;;-138.23;81.51
13434;BME280;6789;47.678;9.158;2024-03-06T08:05:06;53349.25;;;-138.23;81.03
13434;BME280;6789;47.678;9.158;2024-03-06T08:10:01;53353.25;;;-138.23;80.12
13434;BME280;6789;47.678;9.158;2024-03-06T08:14:53;53337.19;;;-138.23;80.75
13434;BME280;6789;47.678;9.158;2024-03-06T08:19:46;53369.34;;;-138.23;81.42
13434;BME280;6789;47.678;9.158;2024-03-06T08:24:37;53347.25;;;-138.23;80.85
13434;BME280;6789;47.678;9.158;2024-03-06T08:29:29;53385.41;;;-138.23;81.21
13434;BME280;6789;47.678;9.158;2024-03-06T08:34:21;53377.38;;;-138.23;81.80
13434;BME280;6789;47.678;9.158;2024-03-06T08:39:14;53349.25;;;-138.23;82.08
13434;BME280;6789;47.678;9.158;2024-03-06T08:44:06;53329.16;;;-138.23;81.22
13434;BME280;6789;47.678;9.158;2024-03-06T08:48:58;53333.19;;;-138.23;80.63
13434;BME280;6789;47.678;9.158;2024-03-06T08:53:54;53399.44;;;-138.23;78.97
13434;BME280;6789;47.678;9.158;2024-03-06T08:58:46;53367.31;;;-138.23;79.38
13434;BME280;6789;47.678;9.158;2024-03-06T09:03:37;53381.38;;;-138.23;79.38
13434;BME280;6789;47.678;9.158;2024-03-06T09:08:29;53337.19;;;-138.23;78.87
13434;BME280;6789;47.678;9.158;2024-03-06T09:13:21;53357.28;;;-138.23;79.44
13434;BME280;6789;47.678;9.158;2024-03-06T09:18:13;53339.22;;;-138.23;76.45
13434;BME280;6789;47.678;9.158;2024-03-06T09:23:05;53375.34;;;-138.23;76.12
13434;BME280;6789;47.678;9.158;2024-03-06T09:27:56;53345.22;;;-138.23;76.66
13434;BME280;6789;47.678;9.158;2024-03-06T09:32:48;53357.28;;;-138.23;78.27
13434;BME280;6789;47.678;9.158;2024-03-06T09:37:40;53369.34;;;-138.23;80.96
13434;BME280;6789;47.678;9.158;2024-03-06T09:42:34;53393.44;;;-138.23;81.45
13434;BME280;6789;47.678;9.158;2024-03-06T09:47:32;53293.03;;;-138.23;81.02
13434;BME280;6789;47.678;9.158;2024-03-06T09:52:24;53345.22;;;-138.23;81.41
13434;BME280;6789;47.678;9.158;2024-03-06T09:57:17;53379.38;;;-138.23;81.10
13434;BME280;6789;47.678;9.158;2024-03-06T10:02:37;53365.31;;;-138.23;81.07
13434;BME280;6789;47.678;9.158;2024-03-06T10:07:30;53353.25;;;-138.23;80.17
13434;BME280;6789;47.678;9.158;2024-03-06T10:12:22;53365.31;;;-138.23;79.02
13434;BME280;6789;47.678;9.158;2024-03-06T10:17:19;53317.13;;;-138.23;78.58
13434;BME280;6789;47.678;9.158;2024-03-06T10:22:15;53353.25;;;-138.23;79.91
13434;BME280;6789;47.678;9.158;2024-03-06T10:27:07;53365.31;;;-138.23;80.07
13434;BME280;6789;47.678;9.158;2024-03-06T10:31:58;53357.28;;;-138.23;79.07
13434;BME280;6789;47.678;9.158;2024-03-06T10:36:58;53331.19;;;-138.23;78.54
13434;BME280;6789;47.678;9.158;2024-03-06T10:41:57;53315.13;;;-138.23;79.20
13434;BME280;6789;47.678;9.158;2024-03-06T10:47:05;53337.19;;;-138.23;78.43
13434;BME280;6789;47.678;9.158;2024-03-06T10:52:02;53335.19;;;-138.23;78.73
13434;BME280;6789;47.678;9.158;2024-03-06T10:56:57;53349.25;;;-138.23;78.67
13434;BME280;6789;47.678;9.158;2024-03-06T11:01:51;53333.19;;;-138.23;75.48
13434;BME280;6789;47.678;9.158;2024-03-06T11:06:43;53311.09;;;-138.23;77.08
13434;BME280;6789;47.678;9.158;2024-03-06T11:11:49;53301.06;;;-138.23;78.00
13434;BME280;6789;47.678;9.158;2024-03-06T11:17:09;53339.22;;;-138.23;78.71
13434;BME280;6789;47.678;9.158;2024-03-06T11:22:02;53373.34;;;-138.23;77.24
13434;BME280;6789;47.678;9.158;2024-03-06T11:27:03;53351.25;;;-138.23;78.38
13434;BME280;6789;47.678;9.158;2024-03-06T11:32:12;53311.09;;;-138.23;79.70
13434;BME280;6789;47.678;9.158;2024-03-06T11:37:07;53341.22;;;-138.23;79.98
13434;BME280;6789;47.678;9.158;2024-03-06T11:42:34;53301.06;;;-138.23;79.72
13434;BME280;6789;47.678;9.158;2024-03-06T11:47:28;53341.22;;;-138.23;76.19
13434;BME280;6789;47.678;9.158;2024-03-06T11:52:20;53321.13;;;-138.23;76.66
13434;BME280;6789;47.678;9.158;2024-03-06T11:57:12;53329.16;;;-138.23;76.86
13434;BME280;6789;47.678;9.158;2024-03-06T12:02:07;53361.31;;;-138.23;80.32
13434;BME280;6789;47.678;9.158;2024-03-06T12:07:02;53381.38;;;-138.23;79.93
13434;BME280;6789;47.678;9.158;2024-03-06T12:11:57;53353.25;;;-138.23;79.65
13434;BME280;6789;47.678;9.158;2024-03-06T12:16:56;53333.19;;;-138.23;78.91
13434;BME280;6789;47.678;9.158;2024-03-06T12:21:49;53365.31;;;-138.23;79.00
13434;BME280;6789;47.678;9.158;2024-03-06T12:26:40;53343.22;;;-138.23;79.50
13434;BME280;6789;47.678;9.158;2024-03-06T12:31:35;53343.22;;;-138.23;79.48
13434;BME280;6789;47.678;9.158;2024-03-06T12:36:27;53321.13;;;-138.23;79.72
13434;BME280;6789;47.678;9.158;2024-03-06T12:41:18;53285.00;;;-138.23;79.29
13434;BME280;6789;47.678;9.158;2024-03-06T12:46:16;53343.22;;;-138.23;76.26
13434;BME280;6789;47.678;9.158;2024-03-06T12:51:11;53337.19;;;-138.23;80.26
13434;BME280;6789;47.678;9.158;2024-03-06T12:56:04;53369.34;;;-138.23;80.05
13434;BME280;6789;47.678;9.158;2024-03-06T13:00:59;53341.22;;;-138.23;80.14
13434;BME280;6789;47.678;9.158;2024-03-06T13:05:53;53321.13;;;-138.23;80.53
13434;BME280;6789;47.678;9.158;2024-03-06T13:10:45;53285.00;;;-138.23;80.80
13434;BME280;6789;47.678;9.158;2024-03-06T13:15:38;53373.34;;;-138.23;80.20
13434;BME280;6789;47.678;9.158;2024-03-06T13:20:31;53381.38;;;-138.23;80.54
13434;BME280;6789;47.678;9.158;2024-03-06T13:25:23;53345.22;;;-138.23;81.55
13434;BME280;6789;47.678;9.158;2024-03-06T13:30:15;53351.25;;;-138.23;81.98
13434;BME280;6789;47.678;9.158;2024-03-06T13:35:07;53311.09;;;-138.23;80.90
13434;BME280;6789;47.678;9.158;2024-03-06T13:40:06;53345.22;;;-138.23;81.35
13434;BME280;6789;47.678;9.158;2024-03-06T13:44:58;53327.16;;;-138.23;81.30
13434;BME280;6789;47.678;9.158;2024-03-06T13:49:50;53361.31;;;-138.23;81.69
13434;BME280;6789;47.678;9.158;2024-03-06T13:54:42;53345.22;;;-138.23;81.72
13434;BME280;6789;47.678;9.158;2024-03-06T13:59:35;53337.19;;;-138.23;80.71
13434;BME280;6789;47.678;9.158;2024-03-06T14:04:27;53341.22;;;-138.23;80.11
13434;BME280;6789;47.678;9.158;2024-03-06T14:09:19;53329.16;;;-138.23;81.55
13434;BME280;6789;47.678;9.158;2024-03-06T14:14:11;53357.28;;;-138.23;81.21
13434;BME280;6789;47.678;9.158;2024-03-06T14:19:04;53361.31;;;-138.23;80.67
13434;BME280;6789;47.678;9.158;2024-03-06T14:24:04;53361.31;;;-138.23;80.30
13434;BME280;6789;47.678;9.158;2024-03-06T14:29:16;53357.28;;;-138.23;78.62
13434;BME280;6789;47.678;9.158;2024-03-06T14:34:08;53341.22;;;-138.23;80.39
13434;BME280;6789;47.678;9.158;2024-03-06T14:38:59;53361.31;;;-138.23;80.08
13434;BME280;6789;47.678;9.158;2024-03-06T14:43:51;53361.31;;;-138.23;81.93
13434;BME280;6789;47.678;9.158;2024-03-06T14:48:43;53373.34;;;-138.23;82.21
13434;BME280;6789;47.678;9.158;2024-03-06T14:53:36;53343.22;;;-138.23;81.60
13434;BME280;6789;47.678;9.158;2024-03-06T14:58:28;53345.22;;;-138.23;82.39
13434;BME280;6789;47.678;9.158;2024-03-06T15:03:20;53375.34;;;-138.23;82.94
13434;BME280;6789;47.678;9.158;2024-03-06T15:08:12;53365.31;;;-138.23;80.32
13434;BME280;6789;47.678;9.158;2024-03-06T15:13:04;53387.41;;;-138.23;80.50
13434;BME280;6789;47.678;9.158;2024-03-06T15:28:13;53365.31;;;-138.23;83.17
13434;BME280;6789;47.678;9.158;2024-03-06T15:33:05;53369.34;;;-138.23;83.20
13434;BME280;6789;47.678;9.158;2024-03-06T15:37:58;53371.34;;;-138.23;82.76
13434;BME280;6789;47.678;9.158;2024-03-06T15:42:51;53365.31;;;-138.23;83.78
13434;BME280;6789;47.678;9.158;2024-03-06T15:47:46;53381.38;;;-138.23;84.24
13434;BME280;6789;47.678;9.158;2024-03-06T15:52:38;53335.19;;;-138.23;84.08
13434;BME280;6789;47.678;9.158;2024-03-06T15:57:30;53349.25;;;-138.23;84.34
13434;BME280;6789;47.678;9.158;2024-03-06T16:02:23;53369.34;;;-138.23;84.46
13434;BME280;6789;47.678;9.158;2024-03-06T16:07:17;53365.31;;;-138.23;84.09
13434;BME280;6789;47.678;9.158;2024-03-06T16:12:09;53347.25;;;-138.23;84.49
13434;BME280;6789;47.678;9.158;2024-03-06T16:17:01;53363.31;;;-138.23;83.88
13434;BME280;6789;47.678;9.158;2024-03-06T16:21:57;53329.16;;;-138.23;84.23
13434;BME280;6789;47.678;9.158;2024-03-06T16:26:49;53311.09;;;-138.23;83.50
13434;BME280;6789;47.678;9.158;2024-03-06T16:31:41;53345.22;;;-138.23;83.54
13434;BME280;6789;47.678;9.158;2024-03-06T16:36:33;53357.28;;;-138.23;83.95
13434;BME280;6789;47.678;9.158;2024-03-06T16:41:25;53341.22;;;-138.23;85.61
13434;BME280;6789;47.678;9.158;2024-03-06T16:46:27;53357.28;;;-138.23;86.16
13434;BME280;6789;47.678;9.158;2024-03-06T16:51:22;53385.41;;;-138.23;85.88
13434;BME280;6789;47.678;9.158;2024-03-06T16:56:13;53381.38;;;-138.23;85.74
13434;BME280;6789;47.678;9.158;2024-03-06T17:01:05;53367.31;;;-138.23;85.61
13434;BME280;6789;47.678;9.158;2024-03-06T17:05:57;53389.41;;;-138.23;86.00
13434;BME280;6789;47.678;9.158;2024-03-06T17:10:49;53405.47;;;-138.23;85.42
13434;BME280;6789;47.678;9.158;2024-03-06T17:15:41;53385.41;;;-138.23;86.63
13434;BME280;6789;47.678;9.158;2024-03-06T17:20:34;53357.28;;;-138.23;87.13
13434;BME280;6789;47.678;9.158;2024-03-06T17:25:26;53379.38;;;-138.23;87.52
13434;BME280;6789;47.678;9.158;2024-03-06T17:30:17;53381.38;;;-138.23;87.37
13434;BME280;6789;47.678;9.158;2024-03-06T17:35:10;53351.25;;;-138.23;88.12
13434;BME280;6789;47.678;9.158;2024-03-06T17:40:02;53387.41;;;-138.23;88.24
13434;BME280;6789;47.678;9.158;2024-03-06T17:44:53;53369.34;;;-138.23;88.11
13434;BME280;6789;47.678;9.158;2024-03-06T17:49:45;53361.31;;;-138.23;87.83
13434;BME280;6789;47.678;9.158;2024-03-06T17:54:37;53355.28;;;-138.23;87.74
13434;BME280;6789;47.678;9.158;2024-03-06T17:59:29;53377.38;;;-138.23;87.74
13434;BME280;6789;47.678;9.158;2024-03-06T18:04:22;53385.41;;;-138.23;86.96
13434;BME280;6789;47.678;9.158;2024-03-06T18:09:16;53381.38;;;-138.23;87.52
13434;BME280;6789;47.678;9.158;2024-03-06T18:14:10;53397.44;;;-138.23;87.77
13434;BME280;6789;47.678;9.158;2024-03-06T18:19:02;53361.31;;;-138.23;87.91
13434;BME280;6789;47.678;9.158;2024-03-06T18:23:53;53369.34;;;-138.23;87.49
13434;BME280;6789;47.678;9.158;2024-03-06T18:28:45;53355.28;;;-138.23;86.17
13434;BME280;6789;47.678;9.158;2024-03-06T18:33:37;53415.53;;;-138.23;86.23
13434;BME280;6789;47.678;9.158;2024-03-06T18:38:31;53405.47;;;-138.23;86.23
13434;BME280;6789;47.678;9.158;2024-03-06T18:43:24;53383.38;;;-138.23;86.53
13434;BME280;6789;47.678;9.158;2024-03-06T18:48:15;53417.53;;;-138.23;86.63
13434;BME280;6789;47.678;9.158;2024-03-06T18:53:07;53367.31;;;-138.23;86.93
13434;BME280;6789;47.678;9.158;2024-03-06T18:57:59;53351.25;;;-138.23;86.94
13434;BME280;6789;47.678;9.158;2024-03-06T19:02:51;53381.38;;;-138.23;87.42
13434;BME280;6789;47.678;9.158;2024-03-06T19:07:45;53367.31;;;-138.23;86.89
13434;BME280;6789;47.678;9.158;2024-03-06T19:12:37;53357.28;;;-138.23;86.64
13434;BME280;6789;47.678;9.158;2024-03-06T19:17:29;53395.44;;;-138.23;86.62
13434;BME280;6789;47.678;9.158;2024-03-06T19:22:21;53389.41;;;-138.23;86.46
13434;BME280;6789;47.678;9.158;2024-03-06T19:27:13;53371.34;;;-138.23;87.15
13434;BME280;6789;47.678;9.158;2024-03-06T19:32:05;53377.38;;;-138.23;86.36
13434;BME280;6789;47.678;9.158;2024-03-06T19:37:01;53403.47;;;-138.23;85.11
13434;BME280;6789;47.678;9.158;2024-03-06T19:41:52;53401.47;;;-138.23;84.28
13434;BME280;6789;47.678;9.158;2024-03-06T19:46:45;53343.22;;;-138.23;84.22
13434;BME280;6789;47.678;9.158;2024-03-06T19:51:41;53351.25;;;-138.23;83.14
13434;BME280;6789;47.678;9.158;2024-03-06T19:56:33;53349.25;;;-138.23;82.83
13434;BME280;6789;47.678;9.158;2024-03-06T20:01:24;53387.41;;;-138.23;84.13
13434;BME280;6789;47.678;9.158;2024-03-06T20:06:16;53389.41;;;-138.23;84.73
13434;BME280;6789;47.678;9.158;2024-03-06T20:11:08;53365.31;;;-138.23;84.99
13434;BME280;6789;47.678;9.158;2024-03-06T20:16:00;53385.41;;;-138.23;85.78
13434;BME280;6789;47.678;9.158;2024-03-06T20:20:52;53365.31;;;-138.23;86.05
13434;BME280;6789;47.678;9.158;2024-03-06T20:25:43;53365.31;;;-138.23;85.80
13434;BME280;6789;47.678;9.158;2024-03-06T20:30:37;53379.38;;;-138.23;85.59
13434;BME280;6789;47.678;9.158;2024-03-06T20:35:37;53349.25;;;-138.23;84.64
13434;BME280;6789;47.678;9.158;2024-03-06T20:40:28;53413.50;;;-138.23;85.11
13434;BME280;6789;47.678;9.158;2024-03-06T20:45:21;53395.44;;;-138.23;85.30
13434;BME280;6789;47.678;9.158;2024-03-06T20:50:13;53389.41;;;-138.23;85.48
13434;BME280;6789;47.678;9.158;2024-03-06T20:55:05;53373.34;;;-138.23;85.69
13434;BME280;6789;47.678;9.158;2024-03-06T20:59:57;53439.63;;;-138.23;85.23
13434;BME280;6789;47.678;9.158;2024-03-06T21:04:48;53345.22;;;-138.23;85.81
13434;BME280;6789;47.678;9.158;2024-03-06T21:09:40;53399.44;;;-138.23;85.59
13434;BME280;6789;47.678;9.158;2024-03-06T21:14:32;53373.34;;;-138.23;85.93
13434;BME280;6789;47.678;9.158;2024-03-06T21:19:25;53363.31;;;-138.23;85.88
13434;BME280;6789;47.678;9.158;2024-03-06T21:24:16;53409.50;;;-138.23;86.28
13434;BME280;6789;47.678;9.158;2024-03-06T21:29:09;53361.31;;;-138.23;86.49
13434;BME280;6789;47.678;9.158;2024-03-06T21:34:01;53385.41;;;-138.23;86.11
13434;BME280;6789;47.678;9.158;2024-03-06T21:38:53;53381.38;;;-138.23;86.25
13434;BME280;6789;47.678;9.158;2024-03-06T21:43:45;53377.38;;;-138.23;86.00
13434;BME280;6789;47.678;9.158;2024-03-06T21:48:36;53409.50;;;-138.23;86.43
13434;BME280;6789;47.678;9.158;2024-03-06T21:53:28;53401.47;;;-138.23;86.30
13434;BME280;6789;47.678;9.158;2024-03-06T21:58:20;53389.41;;;-138.23;85.40
13434;BME280;6789;47.678;9.158;2024-03-06T22:03:12;53409.50;;;-138.23;86.05
13434;BME280;6789;47.678;9.158;2024-03-06T22:08:05;53397.44;;;-138.23;86.25
13434;BME280;6789;47.678;9.158;2024-03-06T22:12:58;53399.44;;;-138.23;86.43
13434;BME280;6789;47.678;9.158;2024-03-06T22:17:50;53409.50;;;-138.23;86.65
13434;BME280;6789;47.678;9.158;2024-03-06T22:22:42;53379.38;;;-138.23;86.17
13434;BME280;6789;47.678;9.158;2024-03-06T22:27:34;53395.44;;;-138.23;85.95
13434;BME280;6789;47.678;9.158;2024-03-06T22:32:26;53381.38;;;-138.23;85.78
13434;BME280;6789;47.678;9.158;2024-03-06T22:37:18;53413.50;;;-138.23;85.83
13434;BME280;6789;47.678;9.158;2024-03-06T22:42:11;53405.47;;;-138.23;86.61
13434;BME280;6789;47.678;9.158;2024-03-06T22:47:03;53403.47;;;-138.23;86.16
13434;BME280;6789;47.678;9.158;2024-03-06T22:51:55;53399.44;;;-138.23;86.66
13434;BME280;6789;47.678;9.158;2024-03-06T22:56:47;53399.44;;;-138.23;86.63
13434;BME280;6789;47.678;9.158;2024-03-06T23:01:39;53337.19;;;-138.23;86.08
13434;BME280;6789;47.678;9.158;2024-03-06T23:06:32;53405.47;;;-138.23;85.54
13434;BME280;6789;47.678;9.158;2024-03-06T23:11:25;53371.34;;;-138.23;86.02
13434;BME280;6789;47.678;9.158;2024-03-06T23:16:17;53389.41;;;-138.23;86.36
13434;BME280;6789;47.678;9.158;2024-03-06T23:21:09;53373.34;;;-138.23;85.61
13434;BME280;6789;47.678;9.158;2024-03-06T23:26:01;53389.41;;;-138.23;85.70
13434;BME280;6789;47.678;9.158;2024-03-06T23:30:53;53373.34;;;-138.23;85.49
13434;BME280;6789;47.678;9.158;2024-03-06T23:35:45;53413.50;;;-138.23;85.11
13434;BME280;6789;47.678;9.158;2024-03-06T23:40:37;53395.44;;;-138.23;85.58
13434;BME280;6789;47.678;9.158;2024-03-06T23:45:29;53381.38;;;-138.23;85.59
13434;BME280;6789;47.678;9.158;2024-03-06T23:50:21;53429.56;;;-138.23;85.73
13434;BME280;6789;47.678;9.158;2024-03-06T23:55:14;53383.38;;;-138.23;86.49
